Time;durP1;ratioP1;P1;durP2;ratioP2;P2;SDS_P1;SDS_P2;PMS_P1;PMS_P2;Temp;Humidity;BMP_temperature;BMP_pressure;BME280_temperature;BME280_humidity;BME280_pressure;Samples;Min_cycle;Max_cycle;Signal;HPM_P1;HPM_P2
2023/05/01 00:01:47;;;;;;;22.80;12.85;;;2.30;99.30;;;;;;5073126;28;20021;-76
2023/05/01 00:04:13;;;;;;;43.58;21.45;;;2.20;99.90;;;;;;5071956;28;20058;-76
2023/05/01 00:06:39;;;;;;;46.17;24.08;;;2.20;99.90;;;;;;5073137;28;20033;-77
2023/05/01 00:09:05;;;;;;;23.40;12.70;;;2.20;99.90;;;;;;5073188;28;20086;-77
2023/05/01 00:11:31;;;;;;;13.18;9.30;;;2.10;99.90;;;;;;5071885;28;20017;-77
2023/05/01 00:13:57;;;;;;;13.50;8.10;;;2.10;99.90;;;;;;5071781;28;20065;-78
2023/05/01 00:16:22;;;;;;;11.77;6.20;;;2.10;99.90;;;;;;5073140;28;20031;-77
2023/05/01 00:18:48;;;;;;;9.32;6.20;;;2.00;99.90;;;;;;5073155;28;20052;-78
2023/05/01 00:21:13;;;;;;;22.48;11.63;;;2.00;99.90;;;;;;5071834;28;20466;-76
2023/05/01 00:23:39;;;;;;;23.25;14.02;;;2.00;99.90;;;;;;5073185;28;20025;-76
2023/05/01 00:26:05;;;;;;;26.45;14.80;;;2.00;99.90;;;;;;5071704;28;20032;-78
2023/05/01 00:28:31;;;;;;;37.50;21.20;;;1.90;99.90;;;;;;5072943;28;20027;-78
2023/05/01 00:30:57;;;;;;;31.73;15.10;;;1.90;99.90;;;;;;5072971;28;20059;-78
2023/05/01 00:33:22;;;;;;;19.17;11.38;;;1.80;99.90;;;;;;5072767;28;20060;-78
2023/05/01 00:35:48;;;;;;;21.52;12.88;;;1.70;99.90;;;;;;5071697;28;20021;-77
2023/05/01 00:38:14;;;;;;;26.25;14.43;;;1.70;99.90;;;;;;5071601;28;20035;-78
2023/05/01 00:40:44;;;;;;;26.60;14.45;;;1.60;99.90;;;;;;5071621;28;20424;-77
2023/05/01 00:43:10;;;;;;;26.52;12.73;;;1.60;99.90;;;;;;5073147;28;20071;-77
2023/05/01 00:45:37;;;;;;;20.73;11.40;;;1.60;99.90;;;;;;5075289;28;20136;-77
2023/05/01 00:48:04;;;;;;;20.45;11.35;;;1.60;99.90;;;;;;5075361;28;20115;-77
2023/05/01 00:50:30;;;;;;;23.35;12.98;;;1.60;99.90;;;;;;5075370;28;20036;-76
2023/05/01 00:52:56;;;;;;;16.90;10.75;;;1.60;99.90;;;;;;5076485;28;20020;-76
2023/05/01 00:55:22;;;;;;;17.70;10.38;;;1.60;99.90;;;;;;5076620;28;20028;-76
2023/05/01 00:57:47;;;;;;;22.23;11.77;;;1.60;99.90;;;;;;5076471;28;20143;-78
2023/05/01 01:00:13;;;;;;;22.67;12.63;;;1.50;99.90;;;;;;5075118;28;20020;-76
2023/05/01 01:02:39;;;;;;;22.13;11.98;;;1.40;99.90;;;;;;5075018;28;20415;-76
2023/05/01 01:05:05;;;;;;;20.27;11.48;;;1.40;99.90;;;;;;5075026;28;20466;-78
2023/05/01 01:07:41;;;;;;;22.70;12.13;;;1.40;99.90;;;;;;5074987;28;20070;-75
2023/05/01 01:10:26;;;;;;;16.30;10.40;;;1.40;99.90;;;;;;5076532;28;20020;-76
2023/05/01 01:13:14;;;;;;;15.27;8.85;;;1.40;99.90;;;;;;5074796;28;20029;-76
2023/05/01 01:16:29;;;;;;;14.48;8.23;;;1.40;99.90;;;;;;5074965;28;20020;-78
2023/05/01 01:19:16;;;;;;;16.70;8.88;;;1.40;99.90;;;;;;5067027;28;20036;-76
2023/05/01 01:21:46;;;;;;;13.95;9.63;;;1.40;99.90;;;;;;5075890;28;20017;-78
2023/05/01 01:24:49;;;;;;;21.80;12.82;;;1.30;99.90;;;;;;5075826;28;20081;-78
2023/05/01 01:27:51;;;;;;;19.38;11.57;;;1.30;99.90;;;;;;5074547;28;20469;-78
2023/05/01 01:30:54;;;;;;;18.08;10.60;;;1.30;99.90;;;;;;5074704;28;20020;-78
2023/05/01 01:33:47;;;;;;;18.98;10.65;;;1.20;99.90;;;;;;5074502;28;20482;-78
2023/05/01 01:37:10;;;;;;;19.08;10.13;;;1.20;99.90;;;;;;5076021;28;20054;-78
2023/05/01 01:39:51;;;;;;;13.63;8.30;;;1.20;99.90;;;;;;5053556;28;20037;-76
2023/05/01 01:42:28;;;;;;;15.60;6.90;;;1.20;99.90;;;;;;5036858;28;20374;-76
2023/05/01 01:45:02;;;;;;;13.52;6.93;;;1.20;99.90;;;;;;5059754;28;20090;-76
2023/05/01 01:47:31;;;;;;;17.17;8.35;;;1.20;99.90;;;;;;5075731;28;20024;-77
2023/05/01 01:50:01;;;;;;;18.65;7.55;;;1.20;99.90;;;;;;5075571;28;20066;-78
2023/05/01 01:52:29;;;;;;;13.98;9.00;;;1.20;99.90;;;;;;5074202;28;20025;-76
2023/05/01 01:54:59;;;;;;;21.10;9.82;;;1.20;99.90;;;;;;5074318;28;20020;-77
2023/05/01 01:57:27;;;;;;;21.40;8.80;;;1.10;99.90;;;;;;5075514;28;20017;-78
2023/05/01 01:59:54;;;;;;;10.30;7.15;;;1.10;99.90;;;;;;5074157;28;20393;-76
2023/05/01 02:02:21;;;;;;;12.48;5.60;;;1.10;99.90;;;;;;5074025;28;20385;-76
2023/05/01 02:04:52;;;;;;;12.63;5.40;;;1.10;99.90;;;;;;5075233;28;20171;-77
2023/05/01 02:07:19;;;;;;;10.93;5.25;;;1.10;99.90;;;;;;5075240;28;20036;-76
2023/05/01 02:09:45;;;;;;;10.82;4.97;;;1.10;99.90;;;;;;5073966;28;20055;-76
2023/05/01 02:12:13;;;;;;;5.85;4.70;;;1.10;99.90;;;;;;5075088;28;20063;-78
2023/05/01 02:14:40;;;;;;;7.25;4.50;;;1.10;99.90;;;;;;5073940;28;20032;-76
2023/05/01 02:17:07;;;;;;;6.95;4.55;;;1.10;99.90;;;;;;5073717;28;20020;-76
2023/05/01 02:19:34;;;;;;;14.30;6.28;;;1.10;99.90;;;;;;5075214;28;20382;-76
2023/05/01 02:22:01;;;;;;;18.30;8.48;;;1.10;99.90;;;;;;5074772;28;20032;-79
2023/05/01 02:24:29;;;;;;;17.50;8.05;;;1.10;99.90;;;;;;5073573;28;20035;-76
2023/05/01 02:27:05;;;;;;;18.08;8.32;;;1.10;99.90;;;;;;5073446;28;20044;-76
2023/05/01 02:29:32;;;;;;;15.40;8.07;;;1.00;99.90;;;;;;5074729;28;20398;-76
2023/05/01 02:31:59;;;;;;;17.85;8.80;;;1.00;99.90;;;;;;5073453;28;20029;-78
2023/05/01 02:34:25;;;;;;;19.88;8.93;;;0.90;99.90;;;;;;5073329;28;20062;-76
2023/05/01 02:36:50;;;;;;;19.63;8.75;;;0.90;99.90;;;;;;5073276;28;20024;-75
2023/05/01 02:39:16;;;;;;;15.48;8.07;;;0.80;99.90;;;;;;5073221;28;20111;-76
2023/05/01 02:41:43;;;;;;;13.18;6.45;;;0.90;99.90;;;;;;5074330;28;20532;-76
2023/05/01 02:44:10;;;;;;;11.15;6.30;;;0.80;99.90;;;;;;5073190;28;20111;-76
2023/05/01 02:46:37;;;;;;;15.57;7.63;;;0.80;99.90;;;;;;5073114;28;20028;-76
2023/05/01 02:49:04;;;;;;;12.63;8.13;;;0.80;99.90;;;;;;5074434;28;20038;-76
2023/05/01 02:51:30;;;;;;;11.82;6.85;;;0.70;99.90;;;;;;5072978;28;20024;-78
2023/05/01 02:53:58;;;;;;;10.90;6.93;;;0.50;99.90;;;;;;5074223;28;20381;-76
2023/05/01 02:56:26;;;;;;;14.85;7.22;;;0.40;99.90;;;;;;5074295;28;20427;-78
2023/05/01 02:58:52;;;;;;;17.35;8.20;;;0.30;99.90;;;;;;5072806;28;20055;-78
2023/05/01 03:01:19;;;;;;;14.10;8.40;;;0.30;99.90;;;;;;5074126;28;20477;-76
2023/05/01 03:03:45;;;;;;;15.05;7.38;;;0.30;99.90;;;;;;5074078;28;20021;-76
2023/05/01 03:06:13;;;;;;;13.10;7.22;;;0.30;99.90;;;;;;5072521;28;20029;-78
2023/05/01 03:08:38;;;;;;;12.38;7.00;;;0.30;99.90;;;;;;5072744;28;20085;-78
2023/05/01 03:11:06;;;;;;;13.77;6.80;;;0.30;99.90;;;;;;5073905;28;20028;-78
2023/05/01 03:13:32;;;;;;;16.20;6.90;;;0.40;99.90;;;;;;5073959;28;20047;-76
2023/05/01 03:15:58;;;;;;;13.70;7.50;;;0.40;99.90;;;;;;5073816;28;20025;-78
2023/05/01 03:18:24;;;;;;;11.75;7.38;;;0.40;99.90;;;;;;5073807;28;20016;-76
2023/05/01 03:20:51;;;;;;;15.13;7.60;;;0.40;99.90;;;;;;5073702;28;20025;-76
2023/05/01 03:23:16;;;;;;;16.80;7.55;;;0.40;99.90;;;;;;5072420;28;20111;-76
2023/05/01 03:25:42;;;;;;;14.98;7.60;;;0.40;99.90;;;;;;5073668;28;20120;-76
2023/05/01 03:28:08;;;;;;;17.63;9.27;;;0.40;99.90;;;;;;5073624;28;20021;-79
2023/05/01 03:30:35;;;;;;;19.85;9.90;;;0.50;99.90;;;;;;5073604;28;20030;-76
2023/05/01 03:33:00;;;;;;;18.02;10.70;;;0.40;99.90;;;;;;5073350;28;20041;-76
2023/05/01 03:35:26;;;;;;;16.48;10.30;;;0.40;99.90;;;;;;5072316;28;20035;-78
2023/05/01 03:37:52;;;;;;;14.68;7.20;;;0.40;99.90;;;;;;5072173;28;20473;-78
2023/05/01 03:40:18;;;;;;;9.65;5.85;;;0.50;99.90;;;;;;5073614;28;20474;-78
2023/05/01 03:42:44;;;;;;;12.10;6.07;;;0.50;99.90;;;;;;5073433;28;20020;-76
2023/05/01 03:45:10;;;;;;;11.40;5.90;;;0.50;99.90;;;;;;5073402;28;20020;-76
2023/05/01 03:47:35;;;;;;;12.93;6.07;;;0.60;99.90;;;;;;5073506;28;20147;-78
2023/05/01 03:50:01;;;;;;;10.98;5.93;;;0.70;99.90;;;;;;5073399;28;20066;-77
2023/05/01 03:52:27;;;;;;;9.35;5.78;;;0.70;99.90;;;;;;5073392;28;20486;-76
2023/05/01 03:54:52;;;;;;;9.10;5.30;;;0.90;99.90;;;;;;5071964;28;20028;-76
2023/05/01 03:57:22;;;;;;;9.18;6.18;;;1.00;99.90;;;;;;5073227;28;20025;-78
2023/05/01 03:59:48;;;;;;;14.18;8.73;;;1.20;99.90;;;;;;5073315;28;20389;-77
2023/05/01 04:02:13;;;;;;;15.27;8.70;;;1.40;99.90;;;;;;5073449;28;20016;-76
2023/05/01 04:04:39;;;;;;;20.05;9.23;;;1.60;99.90;;;;;;5072059;28;20025;-76
2023/05/01 04:07:05;;;;;;;15.95;9.00;;;1.70;99.90;;;;;;5073036;28;20033;-76
2023/05/01 04:09:30;;;;;;;15.45;7.68;;;1.80;99.90;;;;;;5073336;28;20024;-76
2023/05/01 04:11:56;;;;;;;13.90;8.32;;;2.00;99.90;;;;;;5073098;28;20035;-79
2023/05/01 04:14:22;;;;;;;13.93;7.72;;;2.20;99.90;;;;;;5073142;28;20027;-79
2023/05/01 04:16:48;;;;;;;13.57;7.50;;;2.30;99.90;;;;;;5071731;28;20055;-76
2023/05/01 04:19:14;;;;;;;16.63;8.20;;;2.50;99.90;;;;;;5075443;28;20016;-78
2023/05/01 04:21:40;;;;;;;13.20;6.25;;;2.60;99.90;;;;;;5075982;28;20481;-78
2023/05/01 04:24:06;;;;;;;13.93;6.70;;;2.80;99.90;;;;;;5077129;28;20081;-76
2023/05/01 04:26:31;;;;;;;16.65;6.97;;;2.90;99.90;;;;;;5077082;28;20033;-78
2023/05/01 04:28:57;;;;;;;11.60;6.10;;;3.10;99.90;;;;;;5075746;28;20021;-76
2023/05/01 04:31:23;;;;;;;16.27;7.40;;;3.20;99.90;;;;;;5076953;28;20013;-79
2023/05/01 04:33:48;;;;;;;17.75;9.15;;;3.30;99.90;;;;;;5076856;28;20101;-79
2023/05/01 04:36:14;;;;;;;20.35;11.20;;;3.40;99.90;;;;;;5077120;28;20029;-78
2023/05/01 04:38:40;;;;;;;16.13;10.40;;;3.50;99.20;;;;;;5075922;28;20113;-79
2023/05/01 04:41:05;;;;;;;22.33;10.68;;;3.50;98.00;;;;;;5075475;28;20063;-76
2023/05/01 04:43:31;;;;;;;19.77;12.13;;;3.50;96.60;;;;;;5076537;28;20028;-79
2023/05/01 04:45:57;;;;;;;27.02;14.82;;;3.50;94.70;;;;;;5075389;28;20036;-77
2023/05/01 04:48:22;;;;;;;15.40;7.45;;;3.60;94.70;;;;;;5075412;28;20027;-77
2023/05/01 04:50:48;;;;;;;10.95;6.93;;;3.80;95.00;;;;;;5075315;28;20145;-79
2023/05/01 04:53:14;;;;;;;7.90;5.45;;;4.00;93.80;;;;;;5075421;28;20024;-76
2023/05/01 04:55:39;;;;;;;7.90;3.90;;;4.40;88.70;;;;;;5076634;28;20082;-79
2023/05/01 04:58:05;;;;;;;9.27;6.25;;;4.70;84.70;;;;;;5076444;28;20052;-78
2023/05/01 05:00:31;;;;;;;10.63;5.47;;;5.00;83.90;;;;;;5076555;28;20020;-79
2023/05/01 05:02:56;;;;;;;10.70;5.53;;;5.30;85.70;;;;;;5075059;28;20020;-77
2023/05/01 05:05:22;;;;;;;9.30;5.05;;;5.50;84.30;;;;;;5075057;28;20021;-77
2023/05/01 05:07:48;;;;;;;10.70;5.88;;;5.60;83.60;;;;;;5075191;28;20539;-79
2023/05/01 05:10:13;;;;;;;6.43;5.03;;;5.80;82.70;;;;;;5075021;28;20066;-76
2023/05/01 05:12:40;;;;;;;6.10;4.60;;;6.00;81.70;;;;;;5074803;28;20024;-76
2023/05/01 05:15:06;;;;;;;7.30;4.80;;;6.20;79.50;;;;;;5074900;28;20048;-76
2023/05/01 05:17:32;;;;;;;7.60;4.95;;;6.40;77.50;;;;;;5075109;28;20464;-79
2023/05/01 05:19:57;;;;;;;10.13;5.55;;;6.60;76.60;;;;;;5074840;28;20052;-76
2023/05/01 05:22:24;;;;;;;11.18;5.03;;;6.80;73.30;;;;;;5075934;28;20099;-76
2023/05/01 05:24:54;;;;;;;10.43;5.20;;;6.90;71.80;;;;;;5075930;28;20024;-79
2023/05/01 05:27:20;;;;;;;7.93;5.07;;;7.00;70.30;;;;;;5074435;28;20131;-79
2023/05/01 05:29:45;;;;;;;7.90;4.97;;;7.20;68.70;;;;;;5074361;28;20103;-79
2023/05/01 05:32:12;;;;;;;7.68;4.97;;;7.30;69.20;;;;;;5074496;28;20031;-79
2023/05/01 05:34:38;;;;;;;7.38;4.97;;;7.40;68.00;;;;;;5075410;28;20059;-77
2023/05/01 05:37:03;;;;;;;6.35;3.63;;;7.50;68.70;;;;;;5073894;28;20017;-79
2023/05/01 05:39:30;;;;;;;11.32;4.00;;;7.70;69.00;;;;;;5075172;28;20068;-79
2023/05/01 05:41:56;;;;;;;5.03;4.30;;;7.80;67.70;;;;;;5075073;28;20093;-76
2023/05/01 05:44:21;;;;;;;8.48;4.18;;;8.00;67.90;;;;;;5073871;28;20509;-79
2023/05/01 05:46:47;;;;;;;8.45;4.53;;;8.10;66.70;;;;;;5073753;28;20111;-76
2023/05/01 05:49:13;;;;;;;7.35;3.95;;;8.30;66.70;;;;;;5075514;28;20100;-77
2023/05/01 05:51:38;;;;;;;5.50;3.83;;;8.40;66.60;;;;;;5075532;28;20053;-79
2023/05/01 05:54:04;;;;;;;7.55;3.50;;;8.40;63.50;;;;;;5074199;28;20485;-78
2023/05/01 05:56:30;;;;;;;8.57;3.80;;;8.60;63.80;;;;;;5075166;28;20094;-78
2023/05/01 05:58:55;;;;;;;7.25;3.92;;;8.70;64.40;;;;;;5075280;28;20371;-77
2023/05/01 06:01:21;;;;;;;8.07;3.50;;;8.90;63.30;;;;;;5075317;28;20024;-79
2023/05/01 06:03:47;;;;;;;7.28;3.50;;;9.00;63.00;;;;;;5075233;28;20491;-78
2023/05/01 06:06:13;;;;;;;5.38;3.88;;;9.10;62.00;;;;;;5073625;28;20036;-77
2023/05/01 06:08:38;;;;;;;6.38;3.13;;;9.10;61.30;;;;;;5074601;28;20440;-79
2023/05/01 06:11:04;;;;;;;7.25;3.47;;;9.20;61.50;;;;;;5074454;28;20024;-77
2023/05/01 06:13:29;;;;;;;7.07;3.22;;;9.30;61.10;;;;;;5074543;28;20492;-78
2023/05/01 06:15:56;;;;;;;8.07;3.80;;;9.40;61.50;;;;;;5073743;28;20390;-77
2023/05/01 06:18:21;;;;;;;5.32;4.18;;;9.70;61.10;;;;;;5073596;28;20020;-79
2023/05/01 06:20:47;;;;;;;4.68;3.40;;;9.80;60.30;;;;;;5073291;28;20447;-79
2023/05/01 06:23:13;;;;;;;6.97;3.50;;;10.00;59.50;;;;;;5073029;28;20016;-79
2023/05/01 06:25:39;;;;;;;5.25;2.97;;;10.20;58.90;;;;;;5074332;28;20029;-79
2023/05/01 06:28:05;;;;;;;8.73;3.10;;;10.30;58.80;;;;;;5072846;28;20020;-77
2023/05/01 06:30:30;;;;;;;8.07;2.95;;;10.50;57.70;;;;;;5074257;28;20389;-76
2023/05/01 06:32:56;;;;;;;5.00;3.33;;;10.50;57.20;;;;;;5074125;28;20044;-77
2023/05/01 06:35:22;;;;;;;5.68;2.95;;;10.60;56.50;;;;;;5072486;28;20020;-77
2023/05/01 06:37:48;;;;;;;4.55;2.60;;;10.60;56.60;;;;;;5073967;28;20025;-77
2023/05/01 06:40:13;;;;;;;3.40;2.75;;;10.80;57.20;;;;;;5073977;28;20028;-77
2023/05/01 06:42:39;;;;;;;3.80;2.30;;;10.80;55.90;;;;;;5074378;28;20020;-78
2023/05/01 06:45:06;;;;;;;5.63;3.22;;;10.80;55.20;;;;;;5074136;28;20028;-78
2023/05/01 06:47:32;;;;;;;3.90;2.67;;;10.90;55.30;;;;;;5072265;28;20024;-78
2023/05/01 06:49:58;;;;;;;7.97;2.72;;;11.00;55.00;;;;;;5073725;28;20028;-77
2023/05/01 06:52:24;;;;;;;4.07;2.50;;;11.20;55.10;;;;;;5074208;28;20074;-78
2023/05/01 06:54:49;;;;;;;3.80;2.42;;;11.20;52.40;;;;;;5074301;28;20393;-77
2023/05/01 06:57:15;;;;;;;4.03;2.22;;;11.40;52.90;;;;;;5072889;28;20033;-78
2023/05/01 06:59:41;;;;;;;4.50;2.40;;;11.40;51.90;;;;;;5072862;28;20394;-77
2023/05/01 07:02:06;;;;;;;8.20;3.42;;;11.50;51.40;;;;;;5072083;28;20028;-77
2023/05/01 07:04:32;;;;;;;3.60;2.55;;;11.50;51.50;;;;;;5072584;28;20016;-77
2023/05/01 07:06:58;;;;;;;6.90;2.95;;;11.50;50.60;;;;;;5073750;28;20114;-79
2023/05/01 07:09:24;;;;;;;3.70;2.50;;;11.60;51.00;;;;;;5072318;28;20027;-79
2023/05/01 07:11:49;;;;;;;4.10;2.20;;;11.70;50.80;;;;;;5072054;28;20020;-79
2023/05/01 07:14:15;;;;;;;4.63;3.08;;;11.70;50.80;;;;;;5072036;28;20066;-77
2023/05/01 07:16:41;;;;;;;5.22;2.65;;;11.80;50.60;;;;;;5073270;28;20104;-79
2023/05/01 07:19:06;;;;;;;5.35;2.75;;;11.90;50.20;;;;;;5073195;28;20016;-79
2023/05/01 07:21:32;;;;;;;4.28;2.47;;;12.00;50.60;;;;;;5073560;28;20028;-79
2023/05/01 07:23:58;;;;;;;5.05;3.05;;;11.90;49.70;;;;;;5072385;28;20484;-77
2023/05/01 07:26:26;;;;;;;5.38;2.67;;;12.00;49.30;;;;;;5072396;28;20033;-78
2023/05/01 07:28:52;;;;;;;6.63;2.75;;;12.00;49.50;;;;;;5073622;28;20032;-78
2023/05/01 07:31:18;;;;;;;7.57;2.63;;;12.20;50.80;;;;;;5073488;28;20069;-78
2023/05/01 07:33:44;;;;;;;4.22;2.28;;;12.20;50.90;;;;;;5073437;28;20105;-77
2023/05/01 07:36:10;;;;;;;6.35;2.67;;;12.30;50.40;;;;;;5073535;28;20024;-77
2023/05/01 07:38:35;;;;;;;5.32;2.60;;;12.30;49.70;;;;;;5072192;28;20493;-77
2023/05/01 07:41:01;;;;;;;5.53;2.53;;;12.30;49.40;;;;;;5073214;28;20032;-78
2023/05/01 07:43:27;;;;;;;5.63;2.53;;;12.50;51.10;;;;;;5072206;28;20027;-78
2023/05/01 07:45:58;;;;;;;5.30;2.35;;;12.60;49.60;;;;;;5072017;28;20033;-78
2023/05/01 07:48:25;;;;;;;6.95;2.55;;;12.60;48.90;;;;;;5072096;28;20028;-78
2023/05/01 07:50:51;;;;;;;3.70;2.60;;;12.80;49.70;;;;;;5073313;28;20024;-78
2023/05/01 07:53:17;;;;;;;5.00;2.60;;;12.80;50.00;;;;;;5072343;28;20029;-79
2023/05/01 07:55:42;;;;;;;4.35;2.45;;;12.80;48.10;;;;;;5073319;28;20035;-77
2023/05/01 07:58:08;;;;;;;4.60;2.55;;;12.90;48.90;;;;;;5071837;28;20025;-78
2023/05/01 08:00:34;;;;;;;5.15;2.95;;;13.10;50.40;;;;;;5073219;28;20043;-78
2023/05/01 08:03:00;;;;;;;3.25;2.40;;;13.20;48.70;;;;;;5073058;28;20025;-77
2023/05/01 08:05:26;;;;;;;5.13;2.70;;;13.20;48.80;;;;;;5073210;28;20028;-77
2023/05/01 08:07:52;;;;;;;7.25;2.80;;;13.40;49.40;;;;;;5071784;28;20382;-78
2023/05/01 08:10:17;;;;;;;3.63;2.50;;;13.40;48.70;;;;;;5071910;28;20035;-79
2023/05/01 08:12:43;;;;;;;6.68;3.05;;;13.60;47.70;;;;;;5071642;28;20104;-78
2023/05/01 08:15:09;;;;;;;3.88;2.95;;;13.70;47.80;;;;;;5073039;28;20017;-79
2023/05/01 08:17:35;;;;;;;6.63;3.05;;;13.90;47.50;;;;;;5071781;28;20387;-77
2023/05/01 08:20:02;;;;;;;3.75;2.80;;;13.70;46.70;;;;;;5071788;28;20393;-79
2023/05/01 08:22:27;;;;;;;3.90;2.67;;;13.50;46.30;;;;;;5073004;28;20020;-78
2023/05/01 08:24:54;;;;;;;2.47;2.28;;;13.30;46.80;;;;;;5073026;28;20070;-78
2023/05/01 08:27:19;;;;;;;5.97;2.42;;;13.30;47.00;;;;;;5072759;28;20094;-78
2023/05/01 08:29:45;;;;;;;4.53;2.80;;;13.50;48.60;;;;;;5071572;28;20021;-78
2023/05/01 08:32:10;;;;;;;4.10;2.47;;;13.60;48.00;;;;;;5071543;28;20470;-77
2023/05/01 08:34:36;;;;;;;5.50;2.80;;;13.70;48.60;;;;;;5071783;28;20049;-77
2023/05/01 08:37:02;;;;;;;3.67;2.83;;;13.80;48.10;;;;;;5070742;28;20107;-78
2023/05/01 08:39:27;;;;;;;5.70;2.30;;;14.00;48.80;;;;;;5072627;28;20160;-78
2023/05/01 08:41:53;;;;;;;4.32;2.80;;;13.90;47.20;;;;;;5071360;28;20117;-77
2023/05/01 08:44:25;;;;;;;3.65;2.55;;;14.00;47.70;;;;;;5071411;28;20086;-78
2023/05/01 08:47:11;;;;;;;5.43;2.80;;;14.40;47.50;;;;;;5072262;28;20124;-79
2023/05/01 08:49:38;;;;;;;4.55;2.58;;;14.40;46.10;;;;;;5071133;28;20020;-79
2023/05/01 08:52:05;;;;;;;8.07;3.22;;;14.50;46.70;;;;;;5071406;28;20533;-78
2023/05/01 08:54:33;;;;;;;4.82;3.00;;;14.40;47.40;;;;;;5072791;28;20025;-78
2023/05/01 08:57:03;;;;;;;11.77;3.03;;;14.40;47.80;;;;;;5072519;28;20028;-77
2023/05/01 08:59:32;;;;;;;3.90;2.60;;;14.40;47.30;;;;;;5071175;28;20021;-77
2023/05/01 09:02:00;;;;;;;4.25;2.53;;;14.50;47.50;;;;;;5072486;28;20053;-78
2023/05/01 09:04:31;;;;;;;10.32;2.88;;;14.60;45.10;;;;;;5074523;28;20111;-78
2023/05/01 09:06:59;;;;;;;6.28;2.35;;;14.80;45.50;;;;;;5075898;28;20043;-79
2023/05/01 09:09:25;;;;;;;4.35;2.53;;;15.00;46.50;;;;;;5075973;28;20024;-79
2023/05/01 09:11:56;;;;;;;7.47;2.90;;;15.10;47.00;;;;;;5075942;28;20016;-79
2023/05/01 09:14:22;;;;;;;7.90;2.50;;;15.10;47.80;;;;;;5074702;28;20012;-79
2023/05/01 09:16:48;;;;;;;5.32;3.58;;;14.80;46.50;;;;;;5075809;28;20025;-79
2023/05/01 09:19:13;;;;;;;6.40;3.10;;;14.80;46.30;;;;;;5075953;28;20077;-78
2023/05/01 09:21:40;;;;;;;4.18;2.80;;;14.80;45.70;;;;;;5075950;28;20025;-78
2023/05/01 09:24:06;;;;;;;4.28;2.92;;;14.80;47.50;;;;;;5075784;28;20044;-78
2023/05/01 09:26:35;;;;;;;5.38;3.17;;;14.60;46.30;;;;;;5075759;28;20032;-78
2023/05/01 09:29:01;;;;;;;4.28;2.13;;;14.70;47.00;;;;;;5075750;28;20110;-78
2023/05/01 09:31:28;;;;;;;5.13;2.97;;;14.80;47.30;;;;;;5074528;28;20029;-78
2023/05/01 09:33:59;;;;;;;4.45;2.90;;;15.00;48.40;;;;;;5075607;28;20502;-78
2023/05/01 09:36:30;;;;;;;18.25;3.70;;;15.10;45.60;;;;;;5074475;28;20028;-78
2023/05/01 09:38:56;;;;;;;4.53;2.60;;;15.00;46.00;;;;;;5074510;28;20055;-78
2023/05/01 09:41:22;;;;;;;5.78;2.58;;;15.20;46.30;;;;;;5075730;28;20031;-77
2023/05/01 09:43:55;;;;;;;6.78;2.90;;;15.30;46.40;;;;;;5075645;28;20496;-77
2023/05/01 09:46:23;;;;;;;4.07;2.45;;;15.30;44.80;;;;;;5075560;28;20039;-78
2023/05/01 09:49:02;;;;;;;5.03;2.53;;;15.30;45.30;;;;;;5075595;28;20651;-77
2023/05/01 09:51:28;;;;;;;4.82;2.55;;;15.40;45.40;;;;;;5074352;28;20028;-79
2023/05/01 09:54:18;;;;;;;6.43;3.03;;;15.30;44.70;;;;;;5075465;28;20138;-79
2023/05/01 09:56:48;;;;;;;6.88;2.78;;;15.10;44.50;;;;;;5074048;28;20017;-78
2023/05/01 09:59:16;;;;;;;5.40;2.63;;;15.30;45.40;;;;;;5074172;28;20432;-77
2023/05/01 10:01:47;;;;;;;7.30;2.60;;;15.30;44.30;;;;;;5074983;28;20013;-77
2023/05/01 10:04:13;;;;;;;2.38;1.80;;;15.20;43.20;;;;;;5094634;28;20023;-78
2023/05/01 10:06:39;;;;;;;5.30;2.63;;;15.30;43.50;;;;;;5095187;28;20063;-77
2023/05/01 10:09:08;;;;;;;7.13;3.17;;;15.20;44.10;;;;;;5093784;28;20023;-78
2023/05/01 10:11:54;;;;;;;4.25;2.83;;;15.10;44.40;;;;;;5095465;28;20052;-79
2023/05/01 10:14:22;;;;;;;5.85;3.40;;;15.30;45.90;;;;;;5095411;28;20124;-78
2023/05/01 10:16:48;;;;;;;3.95;3.10;;;15.40;45.40;;;;;;5092880;28;20119;-77
2023/05/01 10:19:16;;;;;;;9.00;2.85;;;15.40;46.10;;;;;;5094051;28;20097;-78
2023/05/01 10:21:41;;;;;;;6.45;3.22;;;15.50;46.30;;;;;;5095241;28;20585;-77
2023/05/01 10:24:08;;;;;;;5.80;3.08;;;15.60;46.70;;;;;;5095228;28;20028;-78
2023/05/01 10:26:35;;;;;;;5.28;2.75;;;15.50;46.40;;;;;;5095107;28;20058;-77
2023/05/01 10:29:02;;;;;;;6.57;2.85;;;15.40;45.20;;;;;;5095049;28;20028;-78
2023/05/01 10:31:28;;;;;;;5.65;2.67;;;15.30;45.00;;;;;;5095068;28;20084;-77
2023/05/01 10:33:55;;;;;;;5.32;2.90;;;15.50;45.00;;;;;;5094951;28;20934;-78
2023/05/01 10:36:31;;;;;;;5.22;2.88;;;15.70;45.90;;;;;;5089160;28;20594;-77
2023/05/01 10:38:57;;;;;;;5.47;2.55;;;15.70;44.50;;;;;;5073025;28;20116;-78
2023/05/01 10:41:57;;;;;;;5.40;2.65;;;15.70;44.30;;;;;;5074487;28;20020;-77
2023/05/01 10:44:27;;;;;;;3.25;2.85;;;16.10;45.10;;;;;;5074483;28;20134;-77
2023/05/01 10:46:53;;;;;;;3.33;2.72;;;16.00;43.80;;;;;;5074415;28;20032;-77
2023/05/01 10:49:20;;;;;;;5.72;2.90;;;15.70;44.70;;;;;;5074285;28;20016;-78
2023/05/01 10:51:58;;;;;;;4.35;2.85;;;15.80;46.20;;;;;;5072944;28;20481;-77
2023/05/01 10:54:31;;;;;;;5.93;2.53;;;15.80;45.70;;;;;;5074230;28;20108;-78
2023/05/01 10:57:00;;;;;;;6.78;3.15;;;15.90;46.10;;;;;;5072818;28;20017;-78
2023/05/01 10:59:26;;;;;;;5.47;2.67;;;16.00;46.50;;;;;;5072780;28;20023;-78
2023/05/01 11:01:52;;;;;;;6.60;3.63;;;16.10;45.60;;;;;;5072671;28;20484;-77
2023/05/01 11:04:20;;;;;;;5.25;3.17;;;16.10;46.60;;;;;;5074089;28;20017;-77
2023/05/01 11:07:04;;;;;;;3.78;3.33;;;16.20;44.50;;;;;;5072600;28;20033;-77
2023/05/01 11:09:37;;;;;;;4.57;3.08;;;16.20;45.20;;;;;;5073788;28;20125;-78
2023/05/01 11:12:03;;;;;;;5.18;3.03;;;16.10;45.40;;;;;;5072236;28;20394;-77
2023/05/01 11:15:01;;;;;;;5.95;3.03;;;16.00;45.70;;;;;;5073783;28;20035;-77
2023/05/01 11:17:42;;;;;;;5.40;3.83;;;16.10;45.50;;;;;;5072500;28;20508;-77
2023/05/01 11:20:07;;;;;;;4.85;2.92;;;16.00;44.10;;;;;;5071977;28;20067;-77
2023/05/01 11:22:33;;;;;;;3.63;3.30;;;16.00;44.70;;;;;;5072987;28;20092;-78
2023/05/01 11:25:03;;;;;;;3.55;2.50;;;16.20;45.10;;;;;;5071711;28;20027;-78
2023/05/01 11:27:32;;;;;;;5.63;2.70;;;16.30;45.40;;;;;;5073004;28;20067;-78
2023/05/01 11:29:58;;;;;;;6.03;2.60;;;16.10;44.20;;;;;;5073509;28;20062;-78
2023/05/01 11:32:26;;;;;;;4.82;2.50;;;16.10;43.60;;;;;;5072496;28;20044;-78
2023/05/01 11:34:53;;;;;;;2.55;2.25;;;16.20;43.80;;;;;;5073288;28;20040;-76
2023/05/01 11:37:19;;;;;;;6.30;3.05;;;16.20;43.50;;;;;;5073372;28;20032;-76
2023/05/01 11:39:49;;;;;;;6.15;2.50;;;16.30;44.00;;;;;;5072117;28;20362;-77
2023/05/01 11:42:15;;;;;;;5.68;3.35;;;16.30;42.80;;;;;;5071988;28;20024;-76
2023/05/01 11:44:40;;;;;;;3.92;2.60;;;16.40;44.00;;;;;;5073432;28;20540;-78
2023/05/01 11:47:07;;;;;;;4.45;2.53;;;16.40;42.30;;;;;;5073331;28;20044;-77
2023/05/01 11:49:34;;;;;;;5.30;3.05;;;16.40;43.00;;;;;;5072051;28;20029;-77
2023/05/01 11:52:00;;;;;;;4.28;2.65;;;16.40;42.70;;;;;;5072727;28;20020;-78
2023/05/01 11:54:25;;;;;;;9.25;2.80;;;16.30;43.40;;;;;;5073044;28;20024;-77
2023/05/01 11:56:59;;;;;;;4.85;2.80;;;16.20;42.60;;;;;;5071694;28;20143;-77
2023/05/01 11:59:25;;;;;;;5.93;2.50;;;16.50;43.50;;;;;;5070093;28;20020;-77
2023/05/01 12:01:52;;;;;;;4.78;2.58;;;16.70;43.40;;;;;;5071966;28;20424;-77
2023/05/01 12:04:26;;;;;;;3.78;2.60;;;16.70;43.10;;;;;;5072688;28;20111;-77
2023/05/01 12:06:51;;;;;;;5.43;2.65;;;16.80;43.20;;;;;;5070655;28;20607;-78
2023/05/01 12:09:23;;;;;;;5.55;2.80;;;16.70;42.50;;;;;;5069887;28;20021;-77
2023/05/01 12:11:51;;;;;;;7.70;3.15;;;16.60;40.80;;;;;;5074161;28;20144;-78
2023/05/01 12:14:17;;;;;;;3.70;2.95;;;16.80;42.90;;;;;;5079872;28;20078;-77
2023/05/01 12:16:44;;;;;;;3.17;2.55;;;16.80;39.40;;;;;;5067328;28;20116;-77
2023/05/01 12:19:12;;;;;;;4.40;2.40;;;16.90;41.80;;;;;;5050300;28;20105;-77
2023/05/01 12:21:38;;;;;;;5.68;2.50;;;17.00;40.20;;;;;;5049852;28;20107;-77
2023/05/01 12:24:15;;;;;;;5.45;2.72;;;17.10;41.40;;;;;;5063404;28;20405;-77
2023/05/01 12:26:41;;;;;;;11.82;3.92;;;17.20;41.30;;;;;;5071224;28;20040;-77
2023/05/01 12:29:07;;;;;;;4.50;3.20;;;17.20;41.50;;;;;;5071566;28;20527;-77
2023/05/01 12:31:34;;;;;;;7.72;3.28;;;17.00;41.20;;;;;;5072117;28;20116;-77
2023/05/01 12:34:01;;;;;;;12.82;4.38;;;16.90;41.10;;;;;;5069222;28;20044;-77
2023/05/01 12:36:29;;;;;;;5.07;2.70;;;16.90;42.00;;;;;;5090589;28;20043;-77
2023/05/01 12:39:05;;;;;;;5.35;3.30;;;17.10;43.00;;;;;;5087560;28;20104;-77
2023/05/01 12:41:45;;;;;;;6.50;2.67;;;17.10;42.40;;;;;;5074317;28;20086;-77
2023/05/01 12:44:21;;;;;;;6.35;2.72;;;17.10;41.90;;;;;;5074034;28;20040;-78
2023/05/01 12:47:07;;;;;;;6.13;2.75;;;17.10;41.90;;;;;;5073791;28;20513;-78
2023/05/01 12:49:35;;;;;;;4.88;2.30;;;17.10;41.90;;;;;;5074483;28;20024;-78
2023/05/01 12:52:03;;;;;;;5.60;2.65;;;17.20;41.40;;;;;;5075507;28;20209;-78